Time;durP1;ratioP1;P1;durP2;ratioP2;P2;SDS_P1;SDS_P2;PMS_P1;PMS_P2;Temp;Humidity;BMP_temperature;BMP_pressure;BME280_temperature;BME280_humidity;BME280_pressure;Samples;Min_cycle;Max_cycle;Signal;HPM_P1;HPM_P2
2023/03/10 00:00:04;;;;;;;;;;;10.60;99.90;;;;;;6210450;23;19900;-85
2023/03/10 00:02:32;;;;;;;;;;;10.50;99.90;;;;;;6209067;23;20306;-86
2023/03/10 00:04:57;;;;;;;;;;;10.40;99.90;;;;;;6210717;23;20335;-86
2023/03/10 00:07:23;;;;;;;;;;;10.40;99.90;;;;;;6209641;23;19978;-86
2023/03/10 00:09:48;;;;;;;;;;;10.30;99.90;;;;;;6210354;23;19915;-85
2023/03/10 00:12:14;;;;;;;;;;;10.30;99.90;;;;;;6209693;23;19903;-86
2023/03/10 00:14:39;;;;;;;;;;;10.40;99.90;;;;;;6211462;23;19915;-86
2023/03/10 00:17:05;;;;;;;;;;;10.20;99.90;;;;;;6209667;23;19900;-87
2023/03/10 00:19:30;;;;;;;;;;;10.20;99.90;;;;;;6210485;23;20414;-86
2023/03/10 00:21:56;;;;;;;;;;;10.10;99.90;;;;;;6209985;23;19904;-86
2023/03/10 00:24:21;;;;;;;;;;;10.00;99.90;;;;;;6209503;23;20288;-86
2023/03/10 00:26:50;;;;;;;;;;;10.00;99.90;;;;;;6210171;23;20178;-86
2023/03/10 00:29:16;;;;;;;;;;;10.00;99.90;;;;;;6209575;23;19911;-87
2023/03/10 00:31:41;;;;;;;;;;;10.10;99.90;;;;;;6209843;23;19904;-87
2023/03/10 00:34:07;;;;;;;;;;;10.10;99.90;;;;;;6211521;23;19938;-87
2023/03/10 00:36:32;;;;;;;;;;;10.00;99.90;;;;;;6184514;23;20317;-86
2023/03/10 00:39:03;;;;;;;;;;;10.10;99.90;;;;;;6211489;23;19924;-87
2023/03/10 00:41:30;;;;;;;;;;;10.10;99.90;;;;;;6211559;23;19946;-86
2023/03/10 00:43:56;;;;;;;;;;;10.10;99.90;;;;;;6212242;23;19907;-85
2023/03/10 00:46:22;;;;;;;;;;;10.10;99.90;;;;;;6211757;23;19906;-86
2023/03/10 00:48:48;;;;;;;;;;;10.00;99.90;;;;;;6184762;23;20276;-87
2023/03/10 00:51:14;;;;;;;;;;;10.00;99.90;;;;;;6184622;23;19900;-85
2023/03/10 00:53:41;;;;;;;;;;;10.00;99.90;;;;;;6212800;23;19900;-86
2023/03/10 00:56:09;;;;;;;;;;;10.00;99.90;;;;;;6212933;23;20332;-87
2023/03/10 00:58:35;;;;;;;;;;;10.00;99.90;;;;;;6210884;23;20233;-85
2023/03/10 01:01:01;;;;;;;;;;;10.00;99.90;;;;;;6211938;23;20301;-86
2023/03/10 01:03:27;;;;;;;;;;;9.90;99.90;;;;;;6211648;23;19911;-86
2023/03/10 01:05:53;;;;;;;;;;;9.90;99.90;;;;;;6211469;23;19900;-86
2023/03/10 01:08:19;;;;;;;;;;;9.90;99.90;;;;;;6185173;23;20286;-87
2023/03/10 01:10:45;;;;;;;;;;;9.90;99.90;;;;;;6212483;23;19935;-88
2023/03/10 01:13:11;;;;;;;;;;;9.90;99.90;;;;;;6214764;23;19899;-87
2023/03/10 01:15:37;;;;;;;;;;;9.80;99.90;;;;;;6188183;23;20018;-86
2023/03/10 01:18:03;;;;;;;;;;;9.70;99.90;;;;;;6212895;23;19900;-88
2023/03/10 01:20:32;;;;;;;;;;;9.80;99.90;;;;;;6212201;23;19944;-87
2023/03/10 01:22:58;;;;;;;;;;;9.80;99.90;;;;;;6219103;23;19900;-86
2023/03/10 01:25:23;;;;;;;;;;;9.80;99.90;;;;;;6222215;23;19907;-86
2023/03/10 01:27:49;;;;;;;;;;;9.80;99.90;;;;;;6198032;23;19900;-86
2023/03/10 01:30:15;;;;;;;;;;;9.80;99.90;;;;;;6223806;23;19908;-86
2023/03/10 01:32:40;;;;;;;;;;;9.70;99.90;;;;;;6213813;23;19978;-86
2023/03/10 01:35:06;;;;;;;;;;;9.70;99.90;;;;;;6212125;23;19900;-87
2023/03/10 01:37:32;;;;;;;;;;;9.70;99.90;;;;;;6211635;23;19987;-86
2023/03/10 01:39:57;;;;;;;;;;;9.70;99.90;;;;;;6211273;23;19899;-86
2023/03/10 01:42:23;;;;;;;;;;;9.80;99.90;;;;;;6211215;23;19900;-86
2023/03/10 01:45:06;;;;;;;;;;;9.70;99.90;;;;;;6211405;23;20295;-86
2023/03/10 01:47:31;;;;;;;;;;;9.70;99.90;;;;;;6210408;23;19903;-85
2023/03/10 01:49:57;;;;;;;;;;;9.70;99.90;;;;;;6184716;23;19915;-87
2023/03/10 01:52:24;;;;;;;;;;;9.70;99.90;;;;;;6210464;23;19900;-87
2023/03/10 01:54:55;;;;;;;;;;;9.70;99.90;;;;;;6211003;23;20313;-87
2023/03/10 01:57:22;;;;;;;;;;;9.60;99.90;;;;;;6211098;23;20245;-88
2023/03/10 01:59:48;;;;;;;;;;;9.60;99.90;;;;;;6211162;23;19914;-87
2023/03/10 02:02:13;;;;;;;;;;;9.60;99.90;;;;;;6211062;23;19899;-89
2023/03/10 02:04:41;;;;;;;;;;;9.50;99.90;;;;;;6212626;23;19926;-87
2023/03/10 02:07:07;;;;;;;;;;;9.60;99.90;;;;;;6211928;23;20299;-88
2023/03/10 02:09:35;;;;;;;;;;;9.50;99.90;;;;;;6183989;23;19908;-88
2023/03/10 02:12:02;;;;;;;;;;;9.50;99.90;;;;;;6210944;23;20191;-88
2023/03/10 02:14:27;;;;;;;;;;;9.50;99.90;;;;;;6184555;23;19910;-88
2023/03/10 02:16:53;;;;;;;;;;;9.90;99.90;;;;;;6184233;23;19904;-87
2023/03/10 02:19:33;;;;;;;;;;;9.50;99.90;;;;;;6211502;23;20276;-87
2023/03/10 02:22:03;;;;;;;;;;;9.40;99.90;;;;;;6184715;23;19900;-88
2023/03/10 02:24:41;;;;;;;;;;;9.40;99.90;;;;;;6210319;23;19900;-86
2023/03/10 02:27:13;;;;;;;;;;;9.40;99.90;;;;;;6212081;23;19918;-88
2023/03/10 02:29:41;;;;;;;;;;;9.40;99.90;;;;;;6211650;23;20341;-87
2023/03/10 02:32:07;;;;;;;;;;;9.40;99.90;;;;;;6211314;23;19982;-87
2023/03/10 02:34:32;;;;;;;;;;;9.40;99.90;;;;;;6184178;23;20338;-87
2023/03/10 02:36:58;;;;;;;;;;;9.40;99.90;;;;;;6210976;23;19900;-88
2023/03/10 02:39:23;;;;;;;;;;;9.40;99.90;;;;;;6210857;23;19900;-86
2023/03/10 02:41:49;;;;;;;;;;;9.40;99.90;;;;;;6210819;23;19931;-87
2023/03/10 02:44:17;;;;;;;;;;;9.60;99.90;;;;;;6210967;23;19970;-87
2023/03/10 02:46:42;;;;;;;;;;;9.40;99.90;;;;;;6184046;23;19979;-87
2023/03/10 02:49:11;;;;;;;;;;;9.40;99.90;;;;;;6211411;23;20002;-87
2023/03/10 02:51:38;;;;;;;;;;;9.40;99.90;;;;;;6210964;23;19908;-87
2023/03/10 02:54:05;;;;;;;;;;;9.40;99.90;;;;;;6210844;23;19907;-88
2023/03/10 02:56:33;;;;;;;;;;;9.40;99.90;;;;;;6210722;23;19899;-86
2023/03/10 02:59:00;;;;;;;;;;;9.40;99.90;;;;;;6209141;23;19900;-87
2023/03/10 03:01:26;;;;;;;;;;;9.40;99.90;;;;;;6210201;23;19914;-88
2023/03/10 03:03:52;;;;;;;;;;;9.40;99.90;;;;;;6211172;23;19900;-86
2023/03/10 03:06:18;;;;;;;;;;;9.30;99.90;;;;;;6210292;23;19935;-87
2023/03/10 03:08:43;;;;;;;;;;;9.30;99.90;;;;;;6211124;23;19900;-88
2023/03/10 03:11:09;;;;;;;;;;;9.60;99.90;;;;;;6211806;23;19933;-88
2023/03/10 03:13:36;;;;;;;;;;;9.40;99.90;;;;;;6210232;23;19953;-88
2023/03/10 03:16:03;;;;;;;;;;;9.30;99.90;;;;;;6210081;23;19908;-87
2023/03/10 03:18:29;;;;;;;;;;;9.30;99.90;;;;;;6210767;23;19983;-88
2023/03/10 03:20:54;;;;;;;;;;;9.30;99.90;;;;;;6184019;23;19935;-88
2023/03/10 03:23:20;;;;;;;;;;;9.40;99.90;;;;;;6210109;23;19903;-88
2023/03/10 03:25:45;;;;;;;;;;;9.40;99.90;;;;;;6210599;23;20052;-88
2023/03/10 03:28:11;;;;;;;;;;;9.30;99.90;;;;;;6209557;23;20342;-87
2023/03/10 03:30:37;;;;;;;;;;;9.30;99.90;;;;;;6210614;23;20252;-87
2023/03/10 03:33:04;;;;;;;;;;;9.30;99.90;;;;;;6211026;23;20348;-89
2023/03/10 03:35:31;;;;;;;;;;;9.30;99.90;;;;;;6210170;23;19900;-88
2023/03/10 03:37:56;;;;;;;;;;;9.50;99.90;;;;;;6210764;23;19899;-88
2023/03/10 03:40:23;;;;;;;;;;;9.30;99.90;;;;;;6210516;23;19900;-89
2023/03/10 03:42:49;;;;;;;;;;;9.40;99.90;;;;;;6209768;23;19900;-86
2023/03/10 03:45:16;;;;;;;;;;;9.30;99.90;;;;;;6209796;23;19915;-87
2023/03/10 03:47:42;;;;;;;;;;;9.30;99.90;;;;;;6210300;23;20403;-88
2023/03/10 03:50:08;;;;;;;;;;;9.10;99.90;;;;;;6211590;23;19908;-88
2023/03/10 03:52:34;;;;;;;;;;;9.30;99.90;;;;;;6209483;23;19899;-88
2023/03/10 03:54:59;;;;;;;;;;;9.30;99.90;;;;;;6210316;23;19942;-88
2023/03/10 03:57:25;;;;;;;;;;;9.40;99.90;;;;;;6210333;23;19923;-88
2023/03/10 03:59:51;;;;;;;;;;;9.40;99.90;;;;;;6183325;23;19907;-88
2023/03/10 04:02:16;;;;;;;;;;;9.30;99.90;;;;;;6210460;23;19983;-88
2023/03/10 04:04:42;;;;;;;;;;;9.30;99.90;;;;;;6211018;23;19955;-87
2023/03/10 04:07:07;;;;;;;;;;;9.40;99.90;;;;;;6211903;23;19946;-87
2023/03/10 04:09:33;;;;;;;;;;;9.30;99.90;;;;;;6211204;23;19907;-88
2023/03/10 04:11:58;;;;;;;;;;;9.30;99.90;;;;;;6221370;23;19884;-90
2023/03/10 04:14:24;;;;;;;;;;;9.30;99.90;;;;;;6205602;23;19919;-88
2023/03/10 04:16:49;;;;;;;;;;;9.10;99.90;;;;;;6232497;23;20225;-88
2023/03/10 04:19:15;;;;;;;;;;;9.00;99.90;;;;;;6205484;23;19912;-90
2023/03/10 04:21:40;;;;;;;;;;;9.00;99.90;;;;;;6213002;23;19907;-88
2023/03/10 04:24:06;;;;;;;;;;;8.90;99.90;;;;;;6211647;23;19900;-89
2023/03/10 04:26:32;;;;;;;;;;;8.90;99.90;;;;;;6209821;23;19911;-88
2023/03/10 04:28:57;;;;;;;;;;;8.70;99.90;;;;;;6183354;23;19931;-88
2023/03/10 04:31:23;;;;;;;;;;;8.80;99.90;;;;;;6210063;23;20324;-88
2023/03/10 04:33:49;;;;;;;;;;;8.80;99.90;;;;;;6210253;23;19900;-87
2023/03/10 04:36:17;;;;;;;;;;;8.80;99.90;;;;;;6209724;23;19907;-88
2023/03/10 04:38:43;;;;;;;;;;;9.00;99.90;;;;;;6183186;23;19907;-90
2023/03/10 04:41:08;;;;;;;;;;;8.70;99.90;;;;;;6210998;23;19900;-87
2023/03/10 04:43:34;;;;;;;;;;;9.10;99.90;;;;;;6209462;23;20213;-87
2023/03/10 04:46:00;;;;;;;;;;;8.70;99.90;;;;;;6209889;23;20343;-87
2023/03/10 04:48:26;;;;;;;;;;;8.60;99.90;;;;;;6209183;23;19978;-88
2023/03/10 04:50:55;;;;;;;;;;;8.40;99.90;;;;;;6209364;23;19991;-88
2023/03/10 04:53:21;;;;;;;;;;;8.70;99.90;;;;;;6209494;23;19907;-86
2023/03/10 04:55:46;;;;;;;;;;;8.70;99.90;;;;;;6210531;23;19904;-89
2023/03/10 04:58:12;;;;;;;;;;;9.10;99.90;;;;;;6210059;23;19908;-87
2023/03/10 05:00:38;;;;;;;;;;;8.70;99.90;;;;;;6210084;23;20283;-87
2023/03/10 05:03:04;;;;;;;;;;;8.50;99.90;;;;;;6183386;23;19906;-87
2023/03/10 05:05:32;;;;;;;;;;;8.60;99.90;;;;;;6209564;23;20819;-87
2023/03/10 05:07:58;;;;;;;;;;;9.00;99.90;;;;;;6209939;23;19904;-88
2023/03/10 05:10:23;;;;;;;;;;;8.20;99.90;;;;;;6209196;23;19908;-87
2023/03/10 05:12:49;;;;;;;;;;;9.00;99.90;;;;;;6209149;23;19899;-87
2023/03/10 05:15:14;;;;;;;;;;;8.50;99.90;;;;;;6210039;23;19899;-88
2023/03/10 05:17:40;;;;;;;;;;;8.50;99.90;;;;;;6210422;23;19900;-87
2023/03/10 05:20:08;;;;;;;;;;;9.10;99.90;;;;;;6210527;23;19907;-90
2023/03/10 05:22:33;;;;;;;;;;;8.80;99.90;;;;;;6186389;23;19900;-91
2023/03/10 05:24:59;;;;;;;;;;;8.50;99.90;;;;;;6186962;23;19907;-87
2023/03/10 05:27:24;;;;;;;;;;;8.40;99.90;;;;;;6210066;23;19899;-88
2023/03/10 05:29:50;;;;;;;;;;;8.50;99.90;;;;;;6212200;23;19915;-88
2023/03/10 05:32:15;;;;;;;;;;;8.60;99.90;;;;;;6211520;23;19946;-87
2023/03/10 05:34:41;;;;;;;;;;;8.80;99.90;;;;;;6212174;23;19900;-88
2023/03/10 05:37:06;;;;;;;;;;;8.40;99.90;;;;;;6211591;23;19900;-87
2023/03/10 05:39:32;;;;;;;;;;;8.50;99.90;;;;;;6211675;23;19907;-87
2023/03/10 05:41:57;;;;;;;;;;;9.30;99.90;;;;;;6211450;23;19911;-88
2023/03/10 05:44:23;;;;;;;;;;;8.60;99.90;;;;;;6219556;23;19906;-89
2023/03/10 05:46:48;;;;;;;;;;;8.10;99.90;;;;;;6212307;23;19900;-91
2023/03/10 05:49:14;;;;;;;;;;;8.60;99.90;;;;;;6186314;23;19907;-88
2023/03/10 05:51:39;;;;;;;;;;;8.40;99.90;;;;;;6211680;23;19911;-86
2023/03/10 05:54:05;;;;;;;;;;;8.60;99.90;;;;;;6211324;23;19934;-86
2023/03/10 05:56:31;;;;;;;;;;;9.30;99.90;;;;;;6210416;23;20480;-84
2023/03/10 05:58:57;;;;;;;;;;;8.60;99.90;;;;;;6211228;23;20240;-85
2023/03/10 06:01:22;;;;;;;;;;;8.90;99.90;;;;;;6210786;23;19983;-84
2023/03/10 06:03:48;;;;;;;;;;;8.30;99.90;;;;;;6211390;23;19914;-86
2023/03/10 06:06:13;;;;;;;;;;;8.40;99.90;;;;;;6211470;23;20352;-86
2023/03/10 06:08:39;;;;;;;;;;;8.40;99.90;;;;;;6212526;23;20254;-84
2023/03/10 06:11:04;;;;;;;;;;;8.20;99.90;;;;;;6211047;23;19918;-86
2023/03/10 06:13:30;;;;;;;;;;;8.30;99.90;;;;;;6212489;23;19900;-87
2023/03/10 06:15:57;;;;;;;;;;;8.10;99.90;;;;;;6211683;23;19924;-85
2023/03/10 06:18:22;;;;;;;;;;;8.10;99.90;;;;;;6211686;23;19900;-86
2023/03/10 06:20:48;;;;;;;;;;;8.50;99.90;;;;;;6211428;23;19911;-84
2023/03/10 06:23:14;;;;;;;;;;;8.00;99.90;;;;;;6211767;23;19982;-87
2023/03/10 06:25:40;;;;;;;;;;;8.10;99.90;;;;;;6212372;23;19899;-86
2023/03/10 06:28:05;;;;;;;;;;;8.00;99.90;;;;;;6211258;23;19900;-87
2023/03/10 06:30:31;;;;;;;;;;;7.90;99.90;;;;;;6211542;23;19990;-85
2023/03/10 06:32:57;;;;;;;;;;;8.60;99.90;;;;;;6211128;23;19904;-86
2023/03/10 06:35:23;;;;;;;;;;;7.90;99.90;;;;;;6211963;23;19900;-85
2023/03/10 06:37:48;;;;;;;;;;;7.90;99.90;;;;;;6210790;23;19907;-87
2023/03/10 06:40:14;;;;;;;;;;;8.00;99.90;;;;;;6211174;23;20333;-84
2023/03/10 06:42:40;;;;;;;;;;;7.90;99.90;;;;;;6212012;23;19932;-85
2023/03/10 06:45:06;;;;;;;;;;;7.90;99.90;;;;;;6211254;23;19903;-84
2023/03/10 06:47:31;;;;;;;;;;;7.90;99.90;;;;;;6211266;23;19899;-86
2023/03/10 06:49:57;;;;;;;;;;;8.00;99.90;;;;;;6211331;23;19911;-87
2023/03/10 06:52:23;;;;;;;;;;;7.90;99.90;;;;;;6211113;23;19900;-86
2023/03/10 06:54:48;;;;;;;;;;;7.80;99.90;;;;;;6202500;23;19979;-86
2023/03/10 06:57:14;;;;;;;;;;;7.80;99.90;;;;;;6208756;23;19946;-86
2023/03/10 06:59:39;;;;;;;;;;;7.80;99.90;;;;;;6210887;23;19946;-86
2023/03/10 07:02:05;;;;;;;;;;;7.90;99.90;;;;;;6210503;23;19953;-84
2023/03/10 07:04:31;;;;;;;;;;;7.70;99.90;;;;;;6214389;23;19903;-85
2023/03/10 07:06:56;;;;;;;;;;;7.70;99.90;;;;;;6210878;23;19904;-86
2023/03/10 07:09:22;;;;;;;;;;;8.10;99.90;;;;;;6216185;23;19910;-82
2023/03/10 07:11:47;;;;;;;;;;;7.80;99.90;;;;;;6208069;23;19912;-83
2023/03/10 07:14:13;;;;;;;;;;;7.80;99.90;;;;;;6207346;23;19906;-84
2023/03/10 07:16:41;;;;;;;;;;;7.60;99.90;;;;;;6208808;23;19935;-84
2023/03/10 07:19:06;;;;;;;;;;;7.70;99.90;;;;;;6207004;23;19915;-85
2023/03/10 07:21:32;;;;;;;;;;;7.70;99.90;;;;;;6209634;23;19900;-85
2023/03/10 07:23:57;;;;;;;;;;;8.10;99.90;;;;;;6210791;23;19904;-84
2023/03/10 07:26:23;;;;;;;;;;;8.30;99.90;;;;;;6211502;23;19935;-85
2023/03/10 07:28:49;;;;;;;;;;;7.70;99.90;;;;;;6208035;23;20372;-84
2023/03/10 07:31:15;;;;;;;;;;;7.70;99.90;;;;;;6207203;23;19908;-84
2023/03/10 07:33:40;;;;;;;;;;;7.70;99.90;;;;;;6182305;23;20244;-83
2023/03/10 07:36:10;;;;;;;;;;;7.80;99.90;;;;;;6210474;23;19932;-84
2023/03/10 07:38:36;;;;;;;;;;;7.70;99.90;;;;;;6209889;23;20325;-84
2023/03/10 07:41:06;;;;;;;;;;;7.70;99.90;;;;;;6210608;23;19919;-84
2023/03/10 07:43:31;;;;;;;;;;;7.70;99.90;;;;;;6211095;23;19900;-83
2023/03/10 07:45:57;;;;;;;;;;;7.70;99.90;;;;;;6206597;23;20396;-83
2023/03/10 07:48:22;;;;;;;;;;;7.70;99.90;;;;;;6207070;23;19906;-85
2023/03/10 07:50:54;;;;;;;;;;;7.70;99.90;;;;;;6208475;23;19908;-85
2023/03/10 07:53:20;;;;;;;;;;;7.70;99.90;;;;;;6184410;23;20328;-85
2023/03/10 07:55:45;;;;;;;;;;;8.00;99.90;;;;;;6211534;23;19928;-83
2023/03/10 07:58:11;;;;;;;;;;;7.80;99.90;;;;;;6212240;23;19927;-85
2023/03/10 08:00:36;;;;;;;;;;;8.40;99.90;;;;;;6210357;23;20244;-84
2023/03/10 08:03:02;;;;;;;;;;;8.10;99.90;;;;;;6209129;23;19911;-84
2023/03/10 08:05:27;;;;;;;;;;;7.80;99.90;;;;;;6209950;23;19907;-84
2023/03/10 08:07:56;;;;;;;;;;;8.30;99.90;;;;;;6184009;23;19907;-83
2023/03/10 08:10:21;;;;;;;;;;;7.80;99.90;;;;;;6210840;23;19907;-85
2023/03/10 08:12:47;;;;;;;;;;;7.70;99.90;;;;;;6210838;23;19923;-84
2023/03/10 08:15:13;;;;;;;;;;;8.50;99.90;;;;;;6211738;23;20236;-85
2023/03/10 08:17:39;;;;;;;;;;;7.50;99.90;;;;;;6210357;23;19899;-85
2023/03/10 08:20:05;;;;;;;;;;;7.80;99.90;;;;;;6210836;23;20403;-85
2023/03/10 08:22:31;;;;;;;;;;;7.80;99.90;;;;;;6210480;23;19906;-85
2023/03/10 08:24:58;;;;;;;;;;;8.60;99.90;;;;;;6210863;23;19932;-85
2023/03/10 08:27:24;;;;;;;;;;;7.80;99.90;;;;;;6210722;23;19983;-84
2023/03/10 08:29:50;;;;;;;;;;;7.80;99.90;;;;;;6209990;23;19986;-85
2023/03/10 08:32:15;;;;;;;;;;;7.70;99.90;;;;;;6210161;23;19904;-85
2023/03/10 08:34:41;;;;;;;;;;;7.90;99.90;;;;;;6209584;23;19953;-84
2023/03/10 08:37:07;;;;;;;;;;;7.90;99.90;;;;;;6209637;23;20110;-85
2023/03/10 08:39:33;;;;;;;;;;;7.90;99.90;;;;;;6209797;23;20249;-85
2023/03/10 08:41:59;;;;;;;;;;;7.90;99.90;;;;;;6210040;23;19900;-83
2023/03/10 08:44:25;;;;;;;;;;;7.90;99.90;;;;;;6209791;23;19900;-84
2023/03/10 08:46:51;;;;;;;;;;;8.00;99.90;;;;;;6208616;23;19906;-84
2023/03/10 08:49:18;;;;;;;;;;;8.10;99.90;;;;;;6210384;23;19904;-85
2023/03/10 08:51:44;;;;;;;;;;;8.20;99.90;;;;;;6210209;23;20241;-86
2023/03/10 08:54:10;;;;;;;;;;;8.20;99.90;;;;;;6182901;23;19900;-85
2023/03/10 08:56:36;;;;;;;;;;;8.20;99.90;;;;;;6210936;23;19954;-84
2023/03/10 08:59:01;;;;;;;;;;;8.20;99.90;;;;;;6211042;23;20272;-85
2023/03/10 09:01:28;;;;;;;;;;;8.30;99.90;;;;;;6211971;23;20049;-85
2023/03/10 09:03:54;;;;;;;;;;;8.20;99.90;;;;;;6210933;23;19899;-85
2023/03/10 09:06:20;;;;;;;;;;;8.40;99.90;;;;;;6211775;23;19954;-84
2023/03/10 09:08:47;;;;;;;;;;;8.50;99.90;;;;;;6211606;23;19950;-86
2023/03/10 09:11:20;;;;;;;;;;;8.50;99.90;;;;;;6211666;23;19908;-86
2023/03/10 09:13:45;;;;;;;;;;;8.20;99.90;;;;;;6212395;23;19919;-86
2023/03/10 09:16:12;;;;;;;;;;;8.20;99.90;;;;;;6211642;23;20280;-86
2023/03/10 09:18:38;;;;;;;;;;;8.30;99.90;;;;;;6211300;23;19900;-85
2023/03/10 09:21:03;;;;;;;;;;;8.10;99.90;;;;;;6184879;23;19911;-86
2023/03/10 09:23:29;;;;;;;;;;;8.30;99.90;;;;;;6211269;23;19946;-86
2023/03/10 09:25:54;;;;;;;;;;;8.40;99.90;;;;;;6211034;23;19899;-85
2023/03/10 09:28:20;;;;;;;;;;;8.50;99.90;;;;;;6212065;23;19900;-85
2023/03/10 09:30:46;;;;;;;;;;;8.30;99.90;;;;;;6212088;23;19908;-85
2023/03/10 09:33:14;;;;;;;;;;;8.20;99.90;;;;;;6211304;23;19947;-86
2023/03/10 09:35:40;;;;;;;;;;;9.10;99.90;;;;;;6211602;23;20213;-85
2023/03/10 09:38:05;;;;;;;;;;;8.60;99.90;;;;;;6211499;23;19931;-86
2023/03/10 09:40:31;;;;;;;;;;;8.50;99.90;;;;;;6211428;23;19900;-85
2023/03/10 09:43:01;;;;;;;;;;;8.90;99.90;;;;;;6211327;23;19899;-85
2023/03/10 09:45:33;;;;;;;;;;;8.50;99.90;;;;;;6185225;23;20268;-86
2023/03/10 09:48:04;;;;;;;;;;;8.50;99.90;;;;;;6211302;23;19907;-86
2023/03/10 09:50:37;;;;;;;;;;;8.50;99.90;;;;;;6211349;23;19908;-85
2023/03/10 09:53:12;;;;;;;;;;;8.40;99.90;;;;;;6211448;23;19975;-86
2023/03/10 09:55:42;;;;;;;;;;;8.40;99.90;;;;;;6212796;23;19907;-85
2023/03/10 09:58:11;;;;;;;;;;;8.30;99.90;;;;;;6215027;23;19899;-85
2023/03/10 10:00:39;;;;;;;;;;;8.50;99.90;;;;;;6214678;23;19900;-86
2023/03/10 10:03:05;;;;;;;;;;;8.40;99.90;;;;;;6189558;23;19923;-85
2023/03/10 10:05:32;;;;;;;;;;;8.50;99.90;;;;;;6211849;23;19903;-86
2023/03/10 10:07:59;;;;;;;;;;;8.50;99.90;;;;;;6184583;23;20813;-85
2023/03/10 10:10:27;;;;;;;;;;;8.50;99.90;;;;;;6210934;23;19907;-86
2023/03/10 10:12:53;;;;;;;;;;;8.50;99.90;;;;;;6184171;23;19966;-84
2023/03/10 10:15:24;;;;;;;;;;;8.50;99.90;;;;;;6185395;23;20248;-84
2023/03/10 10:18:01;;;;;;;;;;;8.50;99.90;;;;;;6212414;23;19907;-86
2023/03/10 10:20:26;;;;;;;;;;;8.70;99.90;;;;;;6211263;23;19943;-85
2023/03/10 10:22:52;;;;;;;;;;;8.90;99.90;;;;;;6210848;23;19954;-85
2023/03/10 10:25:19;;;;;;;;;;;8.90;99.90;;;;;;6211743;23;19958;-86
2023/03/10 10:27:46;;;;;;;;;;;9.10;99.90;;;;;;6210593;23;19978;-85
2023/03/10 10:30:32;;;;;;;;;;;9.10;99.90;;;;;;6211168;23;19908;-86
2023/03/10 10:33:07;;;;;;;;;;;9.40;99.90;;;;;;6210392;23;19904;-85
2023/03/10 10:35:34;;;;;;;;;;;9.20;99.90;;;;;;6211294;23;19923;-86
2023/03/10 10:38:01;;;;;;;;;;;9.10;99.90;;;;;;6184344;23;19900;-87
2023/03/10 10:40:28;;;;;;;;;;;9.00;99.90;;;;;;6211459;23;19907;-87
2023/03/10 10:42:54;;;;;;;;;;;9.20;99.90;;;;;;6210635;23;19974;-85
2023/03/10 10:45:29;;;;;;;;;;;9.10;99.90;;;;;;6211392;23;19900;-86
2023/03/10 10:47:54;;;;;;;;;;;9.10;99.90;;;;;;6182627;23;19923;-85
2023/03/10 10:50:27;;;;;;;;;;;9.00;99.90;;;;;;6211534;23;19907;-86
2023/03/10 10:53:12;;;;;;;;;;;8.90;99.90;;;;;;6184980;23;20272;-85
2023/03/10 10:55:38;;;;;;;;;;;9.00;99.90;;;;;;6210624;23;19911;-84
2023/03/10 10:58:05;;;;;;;;;;;9.10;99.90;;;;;;6210783;23;20037;-86
2023/03/10 11:00:31;;;;;;;;;;;9.00;99.90;;;;;;6210474;23;19926;-85
2023/03/10 11:02:56;;;;;;;;;;;9.00;99.90;;;;;;6209992;23;19948;-85
2023/03/10 11:05:36;;;;;;;;;;;8.90;99.90;;;;;;6185416;23;20384;-85
2023/03/10 11:08:21;;;;;;;;;;;9.00;99.90;;;;;;6210222;23;19906;-86
2023/03/10 11:10:50;;;;;;;;;;;9.30;99.90;;;;;;6209907;23;19916;-86
2023/03/10 11:13:18;;;;;;;;;;;9.50;99.90;;;;;;6184121;23;19900;-86
2023/03/10 11:15:44;;;;;;;;;;;9.50;99.90;;;;;;6210095;23;19915;-85
2023/03/10 11:18:13;;;;;;;;;;;9.40;99.90;;;;;;6210751;23;19900;-86
2023/03/10 11:20:51;;;;;;;;;;;9.30;99.90;;;;;;6209904;23;19914;-86
2023/03/10 11:23:37;;;;;;;;;;;9.30;99.90;;;;;;6183850;23;19900;-85
2023/03/10 11:26:05;;;;;;;;;;;9.30;99.90;;;;;;6183730;23;19907;-84
2023/03/10 11:28:50;;;;;;;;;;;9.40;99.90;;;;;;6210650;23;19907;-88
2023/03/10 11:31:23;;;;;;;;;;;9.40;99.90;;;;;;6209480;23;20313;-85
2023/03/10 11:34:06;;;;;;;;;;;9.40;99.90;;;;;;6209348;23;20325;-85
2023/03/10 11:36:46;;;;;;;;;;;9.20;99.90;;;;;;6210573;23;19900;-86
2023/03/10 11:39:30;;;;;;;;;;;9.10;99.90;;;;;;6210483;23;19900;-85
2023/03/10 11:42:11;;;;;;;;;;;9.20;99.90;;;;;;6210106;23;19906;-85
2023/03/10 11:44:40;;;;;;;;;;;9.20;99.90;;;;;;6183173;23;19900;-85
2023/03/10 11:47:14;;;;;;;;;;;9.30;99.90;;;;;;6209910;23;19906;-85
2023/03/10 11:49:42;;;;;;;;;;;9.40;99.90;;;;;;6210302;23;20038;-87
2023/03/10 11:52:13;;;;;;;;;;;9.40;99.90;;;;;;6209661;23;19904;-85
2023/03/10 11:54:58;;;;;;;;;;;9.20;99.90;;;;;;6209916;23;19900;-86
2023/03/10 11:57:24;;;;;;;;;;;9.40;99.90;;;;;;6211567;23;19942;-85
2023/03/10 12:00:00;;;;;;;;;;;9.50;99.90;;;;;;6210170;23;19900;-85
2023/03/10 12:02:28;;;;;;;;;;;9.70;99.90;;;;;;6211255;23;19899;-84
2023/03/10 12:05:02;;;;;;;;;;;9.60;99.90;;;;;;6184425;23;19926;-85
2023/03/10 12:07:32;;;;;;;;;;;9.80;99.90;;;;;;6210558;23;19900;-86
2023/03/10 12:09:59;;;;;;;;;;;10.00;99.90;;;;;;6209861;23;20256;-84
2023/03/10 12:12:32;;;;;;;;;;;9.80;99.90;;;;;;6211419;23;19899;-87
2023/03/10 12:14:59;;;;;;;;;;;9.80;99.90;;;;;;6209786;23;19915;-85
2023/03/10 12:17:25;;;;;;;;;;;9.70;99.90;;;;;;6211108;23;19907;-85
2023/03/10 12:20:10;;;;;;;;;;;9.30;99.90;;;;;;6209717;23;19912;-86
2023/03/10 12:22:38;;;;;;;;;;;9.30;99.90;;;;;;6209867;23;20225;-84
2023/03/10 12:25:24;;;;;;;;;;;9.30;99.90;;;;;;6210107;23;19900;-84
2023/03/10 12:28:08;;;;;;;;;;;9.40;99.90;;;;;;6209657;23;19900;-85
2023/03/10 12:30:55;;;;;;;;;;;8.60;99.90;;;;;;6210136;23;19942;-85
2023/03/10 12:33:29;;;;;;;;;;;9.50;99.90;;;;;;6211168;23;19900;-84
2023/03/10 12:36:16;;;;;;;;;;;9.70;99.90;;;;;;6212294;23;19924;-86
2023/03/10 12:38:56;;;;;;;;;;;9.70;99.90;;;;;;6211741;23;19899;-84
2023/03/10 12:41:24;;;;;;;;;;;9.70;99.90;;;;;;6185907;23;19900;-85
2023/03/10 12:43:57;;;;;;;;;;;9.60;99.90;;;;;;6212331;23;19946;-85
2023/03/10 12:46:42;;;;;;;;;;;9.50;99.90;;;;;;6214806;23;19900;-86
2023/03/10 12:49:16;;;;;;;;;;;9.50;99.90;;;;;;6214790;23;19900;-87
2023/03/10 12:51:45;;;;;;;;;;;9.50;99.90;;;;;;6218545;23;19973;-85
2023/03/10 12:54:28;;;;;;;;;;;9.40;99.90;;;;;;6214454;23;19900;-85
2023/03/10 12:57:00;;;;;;;;;;;9.40;99.90;;;;;;6213029;23;19981;-85
2023/03/10 12:59:31;;;;;;;;;;;9.30;99.90;;;;;;6212851;23;19942;-85
2023/03/10 13:01:59;;;;;;;;;;;9.10;99.90;;;;;;6212612;23;19904;-85
2023/03/10 13:04:26;;;;;;;;;;;9.10;99.90;;;;;;6213221;23;20218;-85
2023/03/10 13:06:55;;;;;;;;;;;9.30;99.90;;;;;;6211911;23;19899;-86
2023/03/10 13:09:21;;;;;;;;;;;9.30;99.90;;;;;;6210589;23;19900;-84
2023/03/10 13:11:52;;;;;;;;;;;9.20;99.90;;;;;;6210581;23;19919;-84
2023/03/10 13:14:19;;;;;;;;;;;9.20;99.90;;;;;;6212088;23;19910;-86
2023/03/10 13:16:55;;;;;;;;;;;9.20;99.90;;;;;;6211421;23;19953;-86
2023/03/10 13:19:22;;;;;;;;;;;9.10;99.90;;;;;;6211860;23;19908;-85
2023/03/10 13:21:48;;;;;;;;;;;9.10;99.90;;;;;;6184840;23;19907;-85
2023/03/10 13:24:25;;;;;;;;;;;9.00;99.90;;;;;;6211303;23;19904;-87
2023/03/10 13:27:03;;;;;;;;;;;9.00;99.90;;;;;;6211639;23;19900;-86
2023/03/10 13:29:29;;;;;;;;;;;8.90;99.90;;;;;;6185846;23;19908;-86
2023/03/10 13:31:54;;;;;;;;;;;9.10;99.90;;;;;;6211480;23;19899;-86
2023/03/10 13:34:21;;;;;;;;;;;8.90;99.90;;;;;;6211648;23;19981;-85
2023/03/10 13:36:46;;;;;;;;;;;8.90;99.90;;;;;;6210629;23;19915;-85
2023/03/10 13:39:15;;;;;;;;;;;9.10;99.90;;;;;;6211446;23;19904;-86
2023/03/10 13:41:42;;;;;;;;;;;8.90;99.90;;;;;;6211333;23;19900;-86
2023/03/10 13:44:18;;;;;;;;;;;9.40;99.90;;;;;;6211199;23;19899;-85
2023/03/10 13:46:49;;;;;;;;;;;8.80;99.90;;;;;;6210992;23;19899;-85
2023/03/10 13:49:16;;;;;;;;;;;8.80;99.90;;;;;;6211296;23;19935;-86
2023/03/10 13:51:50;;;;;;;;;;;8.70;99.90;;;;;;6210590;23;19928;-86
2023/03/10 13:54:42;;;;;;;;;;;8.80;99.90;;;;;;6210889;23;19899;-86
2023/03/10 13:57:14;;;;;;;;;;;8.80;99.90;;;;;;6204438;23;19900;-86
2023/03/10 13:59:39;;;;;;;;;;;8.70;99.90;;;;;;6211175;23;19954;-86
2023/03/10 14:02:11;;;;;;;;;;;8.70;99.90;;;;;;6211394;23;19903;-86
2023/03/10 14:04:42;;;;;;;;;;;8.80;99.90;;;;;;6184826;23;19900;-86
2023/03/10 14:07:07;;;;;;;;;;;8.80;99.90;;;;;;6210385;23;20383;-84
2023/03/10 14:09:32;;;;;;;;;;;8.80;99.90;;;;;;6183849;23;19904;-86
2023/03/10 14:11:58;;;;;;;;;;;9.00;99.90;;;;;;6211881;23;19938;-86
2023/03/10 14:14:25;;;;;;;;;;;8.70;99.90;;;;;;6210688;23;19900;-85
2023/03/10 14:16:55;;;;;;;;;;;8.50;99.90;;;;;;6210356;23;19904;-86
2023/03/10 14:19:40;;;;;;;;;;;8.50;99.90;;;;;;6209706;23;19962;-85
2023/03/10 14:22:27;;;;;;;;;;;8.20;99.90;;;;;;6210163;23;19923;-85
2023/03/10 14:24:53;;;;;;;;;;;8.00;99.90;;;;;;6209631;23;20138;-84
2023/03/10 14:27:19;;;;;;;;;;;8.00;99.90;;;;;;6210846;23;19979;-84
2023/03/10 14:29:48;;;;;;;;;;;7.90;99.90;;;;;;6210430;23;19915;-85
2023/03/10 14:32:14;;;;;;;;;;;7.90;99.90;;;;;;6210000;23;19907;-86